createdAt,value
2022-12-24T00:01:00.789Z,1.02
2022-12-24T00:02:32.509Z,1.63
2022-12-24T00:04:04.473Z,1.38
2022-12-24T00:05:37.838Z,1.30
2022-12-24T00:07:09.573Z,2.00
2022-12-24T00:08:41.480Z,1.10
2022-12-24T00:10:13.217Z,1.05
2022-12-24T00:11:44.881Z,1.40
2022-12-24T00:13:16.725Z,1.52
2022-12-24T00:14:48.344Z,1.83
2022-12-24T00:16:20.063Z,1.88
2022-12-24T00:17:51.732Z,1.48
2022-12-24T00:19:23.545Z,1.55
2022-12-24T00:20:55.132Z,1.48
2022-12-24T00:22:26.773Z,1.55
2022-12-24T00:23:58.436Z,1.20
2022-12-24T00:25:30.118Z,1.73
2022-12-24T00:27:03.504Z,1.77
2022-12-24T00:28:35.190Z,1.30
2022-12-24T00:30:07.309Z,1.52
2022-12-24T00:31:39.029Z,2.03
2022-12-24T00:33:10.890Z,1.67
2022-12-24T00:34:42.501Z,1.45
2022-12-24T00:36:14.585Z,1.48
2022-12-24T00:37:49.449Z,1.38
2022-12-24T00:39:21.113Z,1.23
2022-12-24T00:40:57.619Z,1.23
2022-12-24T00:42:29.327Z,1.58
2022-12-24T00:44:01.014Z,1.58
2022-12-24T00:45:32.675Z,1.42
2022-12-24T00:47:08.367Z,1.15
2022-12-24T00:48:43.556Z,1.80
2022-12-24T00:50:15.387Z,1.50
2022-12-24T00:51:47.032Z,1.65
2022-12-24T00:53:18.919Z,2.25
2022-12-24T00:54:50.473Z,1.40
2022-12-24T00:56:22.985Z,2.80
2022-12-24T00:57:54.667Z,1.52
2022-12-24T00:59:26.503Z,1.70
2022-12-24T01:00:58.173Z,1.10
2022-12-24T01:02:29.962Z,1.27
2022-12-24T01:04:20.445Z,1.48
2022-12-24T01:05:52.036Z,1.42
2022-12-24T01:07:23.760Z,1.48
2022-12-24T01:08:55.418Z,1.58
2022-12-24T01:10:27.170Z,1.45
2022-12-24T01:11:58.769Z,1.75
2022-12-24T01:13:30.423Z,1.58
2022-12-24T01:15:02.131Z,1.23
2022-12-24T01:16:33.792Z,1.77
2022-12-24T01:18:05.461Z,2.13
2022-12-24T01:19:37.329Z,1.63
2022-12-24T01:21:09.087Z,2.17
2022-12-24T01:22:40.913Z,1.35
2022-12-24T01:24:16.419Z,1.65
2022-12-24T01:25:48.249Z,2.03
2022-12-24T01:27:20.794Z,1.77
2022-12-24T01:28:52.465Z,1.42
2022-12-24T01:30:24.881Z,1.50
2022-12-24T01:31:56.484Z,1.40
2022-12-24T01:33:29.355Z,1.35
2022-12-24T01:35:01.101Z,1.35
2022-12-24T01:36:32.839Z,1.38
2022-12-24T01:38:04.453Z,1.35
2022-12-24T01:39:36.145Z,1.63
2022-12-24T01:41:26.549Z,2.20
2022-12-24T01:43:16.706Z,1.42
2022-12-24T01:44:52.541Z,1.40
2022-12-24T01:46:28.549Z,1.67
2022-12-24T01:48:00.174Z,1.60
2022-12-24T01:49:32.075Z,1.63
2022-12-24T01:51:07.729Z,1.73
2022-12-24T01:52:39.535Z,1.15
2022-12-24T01:54:22.501Z,1.33
2022-12-24T01:55:55.036Z,1.55
2022-12-24T01:57:51.490Z,1.40
2022-12-24T01:59:23.295Z,1.73
2022-12-24T02:00:55.061Z,2.00
2022-12-24T02:02:27.765Z,1.42
2022-12-24T02:04:00.221Z,1.48
2022-12-24T02:05:52.994Z,1.63
2022-12-24T02:07:25.160Z,1.20
2022-12-24T02:08:56.964Z,1.55
2022-12-24T02:10:28.619Z,1.50
2022-12-24T02:12:00.738Z,1.45
2022-12-24T02:13:32.329Z,1.50
2022-12-24T02:15:06.923Z,1.50
2022-12-24T02:17:03.118Z,1.63
2022-12-24T02:18:40.622Z,2.35
2022-12-24T02:20:27.029Z,1.50
2022-12-24T02:22:37.553Z,1.90
2022-12-24T02:24:21.771Z,1.30
2022-12-24T02:26:17.562Z,1.45
2022-12-24T02:28:00.162Z,1.15
2022-12-24T02:29:34.813Z,1.85
2022-12-24T02:31:13.809Z,1.38
2022-12-24T02:32:45.373Z,1.95
2022-12-24T02:34:33.113Z,1.50
2022-12-24T02:36:07.141Z,1.40
2022-12-24T02:37:47.530Z,1.88
2022-12-24T02:39:30.484Z,1.50
2022-12-24T02:41:17.602Z,1.63
2022-12-24T02:42:54.637Z,2.20
2022-12-24T02:44:30.285Z,1.27
2022-12-24T02:46:13.890Z,1.33
2022-12-24T02:47:46.666Z,1.30
2022-12-24T02:49:18.602Z,1.40
2022-12-24T02:51:07.161Z,1.33
2022-12-24T02:54:15.248Z,1.38
2022-12-24T02:56:28.286Z,1.95
2022-12-24T02:58:06.168Z,1.48
2022-12-24T03:00:02.759Z,1.50
2022-12-24T03:01:58.884Z,1.40
2022-12-24T03:03:48.502Z,1.48
2022-12-24T03:05:29.936Z,1.42
2022-12-24T03:07:09.040Z,1.50
2022-12-24T03:09:25.052Z,1.27
2022-12-24T03:11:04.969Z,1.73
2022-12-24T03:12:43.870Z,2.22
2022-12-24T03:14:16.475Z,1.58
2022-12-24T03:15:50.040Z,1.63
2022-12-24T03:17:21.972Z,1.67
2022-12-24T03:18:55.724Z,1.50
2022-12-24T03:20:35.214Z,1.92
2022-12-24T03:22:10.570Z,1.70
2022-12-24T03:23:42.973Z,1.55
2022-12-24T03:25:14.644Z,1.88
2022-12-24T03:26:47.135Z,1.52
2022-12-24T03:28:20.382Z,1.40
2022-12-24T03:29:52.114Z,2.45
2022-12-24T03:31:23.889Z,1.90
2022-12-24T03:32:55.488Z,1.98
2022-12-24T03:34:27.079Z,2.10
2022-12-24T03:35:58.640Z,1.45
2022-12-24T03:37:30.289Z,1.40
2022-12-24T03:39:01.925Z,1.80
2022-12-24T03:40:33.585Z,1.88
2022-12-24T03:42:05.291Z,1.80
2022-12-24T03:43:36.888Z,1.33
2022-12-24T03:45:09.111Z,1.38
2022-12-24T03:46:40.749Z,1.85
2022-12-24T03:48:12.351Z,1.58
2022-12-24T03:49:43.931Z,1.33
2022-12-24T03:51:21.122Z,1.63
2022-12-24T03:52:52.773Z,1.30
2022-12-24T03:54:24.298Z,1.25
2022-12-24T03:55:55.835Z,2.25
2022-12-24T03:57:27.379Z,2.25
2022-12-24T03:58:58.988Z,1.98
2022-12-24T04:00:30.723Z,1.52
2022-12-24T04:02:02.583Z,1.55
2022-12-24T04:03:34.311Z,2.63
2022-12-24T04:05:06.938Z,1.45
2022-12-24T04:06:38.504Z,1.75
2022-12-24T04:08:10.021Z,1.83
2022-12-24T04:09:41.837Z,1.88
2022-12-24T04:11:15.316Z,1.95
2022-12-24T04:12:46.961Z,1.65
2022-12-24T04:14:18.580Z,1.70
2022-12-24T04:16:05.271Z,1.75
2022-12-24T04:17:37.358Z,1.58
2022-12-24T04:19:08.967Z,1.83
2022-12-24T04:20:41.008Z,1.58
2022-12-24T04:22:12.574Z,1.63
2022-12-24T04:23:44.567Z,1.75
2022-12-24T04:25:16.185Z,2.42
2022-12-24T04:26:47.774Z,2.03
2022-12-24T04:28:19.349Z,2.33
2022-12-24T04:29:51.060Z,1.70
2022-12-24T04:31:22.750Z,1.35
2022-12-24T04:32:54.374Z,2.03
2022-12-24T04:34:26.861Z,2.13
2022-12-24T04:36:00.026Z,2.00
2022-12-24T04:37:33.708Z,1.75
2022-12-24T04:39:05.280Z,1.75
2022-12-24T04:40:36.867Z,2.42
2022-12-24T04:42:08.528Z,2.80
2022-12-24T04:43:40.117Z,1.70
2022-12-24T04:45:12.386Z,1.77
2022-12-24T04:46:44.032Z,2.50
2022-12-24T04:48:15.577Z,2.05
2022-12-24T04:49:47.193Z,1.65
2022-12-24T04:51:20.354Z,1.75
2022-12-24T04:52:51.966Z,1.50
2022-12-24T04:54:23.561Z,1.73
2022-12-24T04:55:55.149Z,1.42
2022-12-24T04:57:26.869Z,1.55
2022-12-24T04:58:59.375Z,1.52
2022-12-24T05:00:31.011Z,1.63
2022-12-24T05:02:02.646Z,1.73
2022-12-24T05:03:35.235Z,1.35
2022-12-24T05:05:07.167Z,1.73
2022-12-24T05:06:38.844Z,1.33
2022-12-24T05:08:10.633Z,1.67
2022-12-24T05:09:42.218Z,2.42
2022-12-24T05:11:15.709Z,1.80
2022-12-24T05:12:47.296Z,1.33
2022-12-24T05:14:18.839Z,1.48
2022-12-24T05:15:50.604Z,1.67
2022-12-24T05:17:22.463Z,1.60
2022-12-24T05:18:55.503Z,1.65
2022-12-24T05:20:27.088Z,1.33
2022-12-24T05:22:17.223Z,1.55
2022-12-24T05:24:07.553Z,1.20
2022-12-24T05:25:57.959Z,1.42
2022-12-24T05:27:29.925Z,1.73
2022-12-24T05:29:03.205Z,1.40
2022-12-24T05:30:34.857Z,1.80
2022-12-24T05:32:06.489Z,2.08
2022-12-24T05:33:38.216Z,1.75
2022-12-24T05:35:09.811Z,1.30
2022-12-24T05:36:41.971Z,1.50
2022-12-24T05:38:13.580Z,1.48
2022-12-24T05:39:45.165Z,1.52
2022-12-24T05:41:16.742Z,1.58
2022-12-24T05:42:48.309Z,1.25
2022-12-24T05:44:20.071Z,1.55
2022-12-24T05:45:51.655Z,1.52
2022-12-24T05:47:23.267Z,1.80
2022-12-24T05:48:54.836Z,1.40
2022-12-24T05:50:26.469Z,1.55
2022-12-24T05:52:09.675Z,1.65
2022-12-24T05:53:41.677Z,1.33
2022-12-24T05:55:13.292Z,2.65
2022-12-24T05:56:44.935Z,1.30
2022-12-24T05:58:16.631Z,1.90
2022-12-24T05:59:49.205Z,1.83
2022-12-24T06:01:22.470Z,2.30
2022-12-24T06:02:54.124Z,1.80
2022-12-24T06:04:29.010Z,2.38
2022-12-24T06:06:01.116Z,1.60
2022-12-24T06:07:32.684Z,2.47
2022-12-24T06:09:04.589Z,2.22
2022-12-24T06:10:36.166Z,1.73
2022-12-24T06:12:07.910Z,2.38
2022-12-24T06:13:40.836Z,2.72
2022-12-24T06:15:12.605Z,1.90
2022-12-24T06:16:44.219Z,1.63
2022-12-24T06:18:15.769Z,2.00
2022-12-24T06:19:47.323Z,2.22
2022-12-24T06:21:19.451Z,1.73
2022-12-24T06:22:51.057Z,2.05
2022-12-24T06:24:22.633Z,2.38
2022-12-24T06:25:56.692Z,2.70
2022-12-24T06:27:28.386Z,2.00
2022-12-24T06:28:59.899Z,1.83
2022-12-24T06:30:31.577Z,2.05
2022-12-24T06:32:03.213Z,1.73
2022-12-24T06:33:34.922Z,1.70
2022-12-24T06:35:06.772Z,1.92
2022-12-24T06:36:38.426Z,1.90
2022-12-24T06:38:10.112Z,1.83
2022-12-24T06:39:41.617Z,1.80
2022-12-24T06:41:13.233Z,1.85
2022-12-24T06:42:44.881Z,1.80
2022-12-24T06:44:16.507Z,1.92
2022-12-24T06:45:48.576Z,2.05
2022-12-24T06:47:20.152Z,1.63
2022-12-24T06:48:51.814Z,2.03
2022-12-24T06:50:23.594Z,1.60
2022-12-24T06:51:55.189Z,1.50
2022-12-24T06:53:26.723Z,1.92
2022-12-24T06:54:58.364Z,2.17
2022-12-24T06:56:30.313Z,1.65
2022-12-24T06:58:01.886Z,1.35
2022-12-24T06:59:33.504Z,1.75
2022-12-24T07:01:07.410Z,1.80
2022-12-24T07:02:43.496Z,1.73
2022-12-24T07:04:20.087Z,1.70
2022-12-24T07:05:53.844Z,1.60
2022-12-24T07:07:25.469Z,1.58
2022-12-24T07:08:57.565Z,2.33
2022-12-24T07:10:29.219Z,1.80
2022-12-24T07:12:00.816Z,1.73
2022-12-24T07:13:34.239Z,1.70
2022-12-24T07:15:06.550Z,2.10
2022-12-24T07:16:38.225Z,2.05
2022-12-24T07:18:09.877Z,2.15
2022-12-24T07:19:41.625Z,2.22
2022-12-24T07:21:13.163Z,1.92
2022-12-24T07:22:44.830Z,1.90
2022-12-24T07:24:16.569Z,3.45
2022-12-24T07:25:48.209Z,2.10
2022-12-24T07:27:19.948Z,2.47
2022-12-24T07:28:51.627Z,2.80
2022-12-24T07:30:23.232Z,2.30
2022-12-24T07:31:54.950Z,3.25
2022-12-24T07:33:27.130Z,2.83
2022-12-24T07:34:58.711Z,3.17
2022-12-24T07:36:30.334Z,2.22
2022-12-24T07:38:02.729Z,2.13
2022-12-24T07:39:34.477Z,2.42
2022-12-24T07:41:06.034Z,2.55
2022-12-24T07:42:37.639Z,2.42
2022-12-24T07:44:14.065Z,2.28
2022-12-24T07:47:17.146Z,2.97
2022-12-24T07:48:48.703Z,2.40
2022-12-24T07:50:20.299Z,2.80
2022-12-24T07:51:51.884Z,3.15
2022-12-24T07:53:25.002Z,2.20
2022-12-24T07:54:56.683Z,2.88
2022-12-24T07:56:28.304Z,2.47
2022-12-24T07:57:59.890Z,3.05
2022-12-24T07:59:31.431Z,3.47
2022-12-24T08:01:03.083Z,3.00
2022-12-24T08:02:36.336Z,3.55
2022-12-24T08:04:08.251Z,3.63
2022-12-24T08:05:39.908Z,5.57
2022-12-24T08:07:11.650Z,4.85
2022-12-24T08:08:43.404Z,3.33
2022-12-24T08:10:15.114Z,3.60
2022-12-24T08:11:51.940Z,4.18
2022-12-24T08:13:24.212Z,4.30
2022-12-24T08:14:55.788Z,3.78
2022-12-24T08:16:27.618Z,3.13
2022-12-24T08:17:59.332Z,4.07
2022-12-24T08:19:30.974Z,5.47
2022-12-24T08:21:02.558Z,4.53
2022-12-24T08:22:34.254Z,4.60
2022-12-24T08:24:06.368Z,5.05
2022-12-24T08:25:38.392Z,4.20
2022-12-24T08:27:10.236Z,4.07
2022-12-24T08:28:41.944Z,4.80
2022-12-24T08:30:20.633Z,6.15
2022-12-24T08:31:52.846Z,5.22
2022-12-24T08:33:24.531Z,6.57
2022-12-24T08:34:56.172Z,4.82
2022-12-24T08:36:27.781Z,5.13
2022-12-24T08:37:59.619Z,5.00
2022-12-24T08:39:31.350Z,4.93
2022-12-24T08:41:02.964Z,4.90
2022-12-24T08:42:34.630Z,4.93
2022-12-24T08:44:06.330Z,5.15
2022-12-24T08:45:40.843Z,4.28
2022-12-24T08:47:12.645Z,6.50
2022-12-24T08:48:44.364Z,4.55
2022-12-24T08:50:16.266Z,4.90
2022-12-24T08:51:49.056Z,4.00
2022-12-24T08:53:20.699Z,4.13
2022-12-24T08:54:52.203Z,3.22
2022-12-24T08:56:23.835Z,3.65
2022-12-24T08:57:55.491Z,3.20
2022-12-24T08:59:27.135Z,3.05
2022-12-24T09:00:59.629Z,3.38
2022-12-24T09:02:31.306Z,3.58
2022-12-24T09:04:03.047Z,3.20
2022-12-24T09:05:34.680Z,3.03
2022-12-24T09:07:07.599Z,3.30
2022-12-24T09:09:04.524Z,4.10
2022-12-24T09:10:36.164Z,3.38
2022-12-24T09:12:08.697Z,3.45
2022-12-24T09:13:41.061Z,3.78
2022-12-24T09:15:14.366Z,4.18
2022-12-24T09:16:46.045Z,3.40
2022-12-24T09:18:17.975Z,2.50
2022-12-24T09:19:49.650Z,2.65
2022-12-24T09:21:21.383Z,2.97
2022-12-24T09:22:53.138Z,1.98
2022-12-24T09:24:24.818Z,2.15
2022-12-24T09:25:57.041Z,2.17
2022-12-24T09:27:31.191Z,2.20
2022-12-24T09:29:03.396Z,2.67
2022-12-24T09:30:35.372Z,2.20
2022-12-24T09:32:07.765Z,2.45
2022-12-24T09:33:41.679Z,2.70
2022-12-24T09:35:13.365Z,2.08
2022-12-24T09:36:46.241Z,2.13
2022-12-24T09:38:18.363Z,2.03
2022-12-24T09:39:50.121Z,2.10
2022-12-24T09:41:41.309Z,2.30
2022-12-24T09:43:19.556Z,2.53
2022-12-24T09:45:06.565Z,2.53
2022-12-24T09:46:43.657Z,2.65
2022-12-24T09:48:24.524Z,2.92
2022-12-24T09:49:59.711Z,2.47
2022-12-24T09:51:50.336Z,3.03
2022-12-24T09:53:28.756Z,3.83
2022-12-24T09:55:17.570Z,3.75
2022-12-24T09:56:49.336Z,2.90
2022-12-24T09:58:31.270Z,2.15
2022-12-24T10:00:03.915Z,3.35
2022-12-24T10:01:41.887Z,2.65
2022-12-24T10:03:16.547Z,2.60
2022-12-24T10:04:48.762Z,2.13
2022-12-24T10:06:29.588Z,2.60
2022-12-24T10:08:39.970Z,2.10
2022-12-24T10:10:23.471Z,2.30
2022-12-24T10:12:06.076Z,2.08
2022-12-24T10:13:40.395Z,2.33
2022-12-24T10:15:20.946Z,1.95
2022-12-24T10:17:02.075Z,2.03
2022-12-24T10:18:59.531Z,2.58
2022-12-24T10:20:36.089Z,1.98
2022-12-24T10:22:41.478Z,2.00
2022-12-24T10:24:22.419Z,2.13
2022-12-24T10:26:15.586Z,2.10
2022-12-24T10:27:58.536Z,2.30
2022-12-24T10:29:39.412Z,2.97
2022-12-24T10:31:11.508Z,2.63
2022-12-24T10:32:43.561Z,2.47
2022-12-24T10:34:21.003Z,1.77
2022-12-24T10:35:56.006Z,1.90
2022-12-24T10:37:29.623Z,2.10
2022-12-24T10:39:01.234Z,2.15
2022-12-24T10:40:42.654Z,2.55
2022-12-24T10:42:17.042Z,2.03
2022-12-24T10:43:49.483Z,2.35
2022-12-24T10:45:23.898Z,2.63
2022-12-24T10:46:55.624Z,2.25
2022-12-24T10:49:16.831Z,2.72
2022-12-24T10:51:05.983Z,1.70
2022-12-24T10:52:41.069Z,2.30
2022-12-24T10:54:26.916Z,2.38
2022-12-24T10:56:05.187Z,2.58
2022-12-24T10:57:37.664Z,2.13
2022-12-24T10:59:25.797Z,2.67
2022-12-24T11:00:57.533Z,3.10
2022-12-24T11:02:31.395Z,2.35
2022-12-24T11:04:04.401Z,1.90
2022-12-24T11:05:37.426Z,2.42
2022-12-24T11:07:19.911Z,1.92
2022-12-24T11:08:51.639Z,1.98
2022-12-24T11:10:24.272Z,2.60
2022-12-24T11:11:59.530Z,2.10
2022-12-24T11:13:43.716Z,2.13
2022-12-24T11:15:29.023Z,2.45
2022-12-24T11:17:01.041Z,2.28
2022-12-24T11:18:36.699Z,1.98
2022-12-24T11:20:18.785Z,2.28
2022-12-24T11:21:58.980Z,2.00
2022-12-24T11:23:31.276Z,2.92
2022-12-24T11:25:07.794Z,2.15
2022-12-24T11:26:42.177Z,2.88
2022-12-24T11:28:20.882Z,2.13
2022-12-24T11:29:52.712Z,2.05
2022-12-24T11:31:24.642Z,2.95
2022-12-24T11:33:03.147Z,2.78
2022-12-24T11:34:34.782Z,2.47
2022-12-24T11:36:12.220Z,1.92
2022-12-24T11:37:44.039Z,2.65
2022-12-24T11:39:22.520Z,3.25
2022-12-24T11:40:59.131Z,2.28
2022-12-24T11:42:39.299Z,3.03
2022-12-24T11:44:12.583Z,2.88
2022-12-24T11:45:57.749Z,2.22
2022-12-24T11:47:34.281Z,2.05
2022-12-24T11:49:11.767Z,3.33
2022-12-24T11:50:43.349Z,2.47
2022-12-24T11:52:22.432Z,2.17
2022-12-24T11:54:11.558Z,2.40
2022-12-24T11:55:55.624Z,2.75
2022-12-24T11:57:36.827Z,2.00
2022-12-24T11:59:15.682Z,2.60
2022-12-24T12:00:49.283Z,2.22
2022-12-24T12:02:28.233Z,5.07
2022-12-24T12:04:06.712Z,3.53
2022-12-24T12:05:39.187Z,2.22
2022-12-24T12:07:16.124Z,2.25
2022-12-24T12:08:50.418Z,3.78
2022-12-24T12:10:29.699Z,2.35
2022-12-24T12:12:45.289Z,2.17
2022-12-24T12:14:30.344Z,2.20
2022-12-24T12:16:20.484Z,2.45
2022-12-24T12:17:55.577Z,2.17
2022-12-24T12:19:33.013Z,2.28
2022-12-24T12:21:14.921Z,2.13
2022-12-24T12:23:23.573Z,2.42
2022-12-24T12:24:59.219Z,2.17
2022-12-24T12:26:32.295Z,2.72
2022-12-24T12:28:11.728Z,2.67
2022-12-24T12:29:52.311Z,2.60
2022-12-24T12:31:30.874Z,2.25
2022-12-24T12:33:18.073Z,1.98
2022-12-24T12:35:05.591Z,3.72
2022-12-24T12:36:47.015Z,2.20
2022-12-24T12:38:24.121Z,2.80
2022-12-24T12:39:55.815Z,2.42
2022-12-24T12:42:05.097Z,2.70
2022-12-24T12:43:45.610Z,2.00
2022-12-24T12:45:20.055Z,3.28
2022-12-24T12:47:14.724Z,2.40
2022-12-24T12:49:02.772Z,2.42
2022-12-24T12:50:35.683Z,1.92
2022-12-24T12:52:46.662Z,2.40
2022-12-24T12:54:30.110Z,2.15
2022-12-24T12:56:01.636Z,2.63
2022-12-24T12:57:37.409Z,2.03
2022-12-24T12:59:32.304Z,3.33
2022-12-24T13:03:17.743Z,2.15
2022-12-24T13:05:01.424Z,1.95
2022-12-24T13:07:11.779Z,2.45
2022-12-24T13:09:08.210Z,2.58
2022-12-24T13:10:52.132Z,2.80
2022-12-24T13:12:26.441Z,1.90
2022-12-24T13:14:07.196Z,2.20
2022-12-24T13:16:10.063Z,2.72
2022-12-24T13:17:59.998Z,2.60
2022-12-24T13:20:09.911Z,2.63
2022-12-24T13:21:45.893Z,2.25
2022-12-24T13:24:55.474Z,3.38
2022-12-24T13:26:27.077Z,2.67
2022-12-24T13:28:15.797Z,2.35
2022-12-24T13:30:06.916Z,1.88
2022-12-24T13:31:41.215Z,2.22
2022-12-24T13:33:33.393Z,2.67
2022-12-24T13:35:25.153Z,3.05
2022-12-24T13:37:03.776Z,1.90
2022-12-24T13:38:54.882Z,2.10
2022-12-24T13:40:27.554Z,2.28
2022-12-24T13:41:59.240Z,2.17
2022-12-24T13:44:03.051Z,2.20
2022-12-24T13:45:41.655Z,2.47
2022-12-24T13:47:13.207Z,2.72
2022-12-24T13:48:45.535Z,2.65
2022-12-24T13:50:29.867Z,2.67
2022-12-24T13:52:10.662Z,2.15
2022-12-24T13:53:47.991Z,2.35
2022-12-24T13:55:19.956Z,2.42
2022-12-24T13:56:51.695Z,1.88
2022-12-24T13:58:25.196Z,2.33
2022-12-24T14:00:29.266Z,3.08
2022-12-24T14:02:01.202Z,2.25
2022-12-24T14:03:54.910Z,2.25
2022-12-24T14:05:44.703Z,2.45
2022-12-24T14:07:20.321Z,1.77
2022-12-24T14:08:55.121Z,1.88
2022-12-24T14:10:31.794Z,2.15
2022-12-24T14:12:03.401Z,2.05
2022-12-24T14:13:40.914Z,2.08
2022-12-24T14:15:45.750Z,2.33
2022-12-24T14:17:26.788Z,1.92
2022-12-24T14:19:04.659Z,2.95
2022-12-24T14:20:37.314Z,3.22
2022-12-24T14:22:11.570Z,5.10
2022-12-24T14:23:50.445Z,3.72
2022-12-24T14:25:23.595Z,4.60
2022-12-24T14:26:59.841Z,4.68
2022-12-24T14:28:40.246Z,3.38
2022-12-24T14:30:21.037Z,3.13
2022-12-24T14:31:57.627Z,3.20
2022-12-24T14:33:31.113Z,2.42
2022-12-24T14:35:24.402Z,2.40
2022-12-24T14:36:57.377Z,2.13
2022-12-24T14:38:30.011Z,3.47
2022-12-24T14:40:01.923Z,2.70
2022-12-24T14:41:42.231Z,2.20
2022-12-24T14:43:35.033Z,3.38
2022-12-24T14:45:17.037Z,3.10
2022-12-24T14:47:06.777Z,2.53
2022-12-24T14:48:45.756Z,2.80
2022-12-24T14:50:23.039Z,2.88
2022-12-24T14:52:30.832Z,1.90
2022-12-24T14:54:23.543Z,3.55
2022-12-24T14:55:55.222Z,2.88
2022-12-24T14:57:27.546Z,2.50
2022-12-24T14:59:04.575Z,2.92
2022-12-24T15:00:39.400Z,4.18
2022-12-24T15:02:33.119Z,2.70
2022-12-24T15:05:53.977Z,3.38
2022-12-24T15:07:26.201Z,2.90
2022-12-24T15:08:57.894Z,2.88
2022-12-24T15:10:38.394Z,2.53
2022-12-24T15:12:12.488Z,2.92
2022-12-24T15:13:50.237Z,3.60
2022-12-24T15:15:22.356Z,2.72
2022-12-24T15:16:56.002Z,2.78
2022-12-24T15:18:31.983Z,2.63
2022-12-24T15:21:41.467Z,2.40
2022-12-24T15:23:21.635Z,2.67
2022-12-24T15:24:53.874Z,2.53
2022-12-24T15:26:30.187Z,2.67
2022-12-24T15:28:01.914Z,2.60
2022-12-24T15:29:42.240Z,2.58
2022-12-24T15:31:15.579Z,2.50
2022-12-24T15:32:49.639Z,2.60
2022-12-24T15:34:41.023Z,3.08
2022-12-24T15:36:14.591Z,2.72
2022-12-24T15:37:46.241Z,2.90
2022-12-24T15:39:18.132Z,2.45
2022-12-24T15:40:50.261Z,2.70
2022-12-24T15:42:24.032Z,2.80
2022-12-24T15:44:04.138Z,3.80
2022-12-24T15:45:42.265Z,2.47
2022-12-24T15:47:21.473Z,2.35
2022-12-24T15:48:55.656Z,2.35
2022-12-24T15:50:56.814Z,2.75
2022-12-24T15:52:28.651Z,3.70
2022-12-24T15:54:07.224Z,2.95
2022-12-24T15:55:38.796Z,3.47
2022-12-24T15:57:23.003Z,3.72
2022-12-24T15:59:12.458Z,4.50
2022-12-24T16:00:44.634Z,4.82
2022-12-24T16:02:40.676Z,3.92
2022-12-24T16:04:15.040Z,3.58
2022-12-24T16:05:47.202Z,4.25
2022-12-24T16:07:46.875Z,4.53
2022-12-24T16:09:36.636Z,3.42
2022-12-24T16:11:16.113Z,4.05
2022-12-24T16:12:47.804Z,4.28
2022-12-24T16:14:20.392Z,4.38
2022-12-24T16:15:57.862Z,4.50
2022-12-24T16:17:33.968Z,4.35
2022-12-24T16:19:08.371Z,5.15
2022-12-24T16:20:47.801Z,4.03
2022-12-24T16:22:39.744Z,4.75
2022-12-24T16:24:18.877Z,4.85
2022-12-24T16:25:50.800Z,4.93
2022-12-24T16:27:22.477Z,5.45
2022-12-24T16:28:55.906Z,4.50
2022-12-24T16:30:27.627Z,5.20
2022-12-24T16:31:59.552Z,4.75
2022-12-24T16:33:31.261Z,4.18
2022-12-24T16:35:06.592Z,4.80
2022-12-24T16:36:38.157Z,5.03
2022-12-24T16:38:09.992Z,4.57
2022-12-24T16:39:44.091Z,4.30
2022-12-24T16:47:30.305Z,6.18
2022-12-24T16:49:02.029Z,6.25
2022-12-24T16:50:33.933Z,7.00
2022-12-24T16:52:16.584Z,7.25
2022-12-24T16:53:48.238Z,7.88
2022-12-24T16:55:19.937Z,7.13
2022-12-24T16:56:51.792Z,6.13
2022-12-24T16:58:23.552Z,6.78
2022-12-24T16:59:55.327Z,6.82
2022-12-24T17:01:26.961Z,7.57
2022-12-24T17:02:58.819Z,6.88
2022-12-24T17:04:34.266Z,6.75
2022-12-24T17:06:07.518Z,6.30
2022-12-24T17:07:43.426Z,7.82
2022-12-24T17:09:15.790Z,7.20
2022-12-24T17:10:51.621Z,8.45
2022-12-24T17:12:23.248Z,7.95
2022-12-24T17:13:54.850Z,7.00
2022-12-24T17:15:26.637Z,7.97
2022-12-24T17:16:58.237Z,9.13
2022-12-24T17:18:30.048Z,9.23
2022-12-24T17:20:01.818Z,7.80
2022-12-24T17:21:33.535Z,8.82
2022-12-24T17:23:05.206Z,9.32
2022-12-24T17:24:36.790Z,8.63
2022-12-24T17:26:14.534Z,9.02
2022-12-24T17:27:46.794Z,8.90
2022-12-24T17:29:18.379Z,7.70
2022-12-24T17:30:50.094Z,8.73
2022-12-24T17:32:21.816Z,10.95
2022-12-24T17:33:53.566Z,8.73
2022-12-24T17:35:25.148Z,9.50
2022-12-24T17:36:56.974Z,8.20
2022-12-24T17:38:28.568Z,9.10
2022-12-24T17:40:00.406Z,8.77
2022-12-24T17:41:32.003Z,6.35
2022-12-24T17:43:03.695Z,6.43
2022-12-24T17:44:35.465Z,6.45
2022-12-24T17:46:18.018Z,7.35
2022-12-24T17:47:49.747Z,6.78
2022-12-24T17:49:21.750Z,6.80
2022-12-24T17:50:53.390Z,8.63
2022-12-24T17:52:25.166Z,8.05
2022-12-24T17:53:56.858Z,8.57
2022-12-24T17:55:28.481Z,8.70
2022-12-24T17:57:00.292Z,8.48
2022-12-24T17:58:32.648Z,9.10
2022-12-24T18:00:05.093Z,8.95
2022-12-24T18:01:36.708Z,8.07
2022-12-24T18:03:14.088Z,8.52
2022-12-24T18:04:45.908Z,9.43
2022-12-24T18:06:19.000Z,9.05
2022-12-24T18:07:50.631Z,9.30
2022-12-24T18:09:22.389Z,9.85
2022-12-24T18:10:54.025Z,7.70
2022-12-24T18:12:25.756Z,8.15
2022-12-24T18:13:57.727Z,7.10
2022-12-24T18:15:36.757Z,8.50
2022-12-24T18:17:08.382Z,9.23
2022-12-24T18:18:40.067Z,8.60
2022-12-24T18:20:12.356Z,8.13
2022-12-24T18:21:44.234Z,7.78
2022-12-24T18:23:16.328Z,7.32
2022-12-24T18:24:48.079Z,7.03
2022-12-24T18:26:20.503Z,6.00
2022-12-24T18:27:52.120Z,6.10
2022-12-24T18:29:23.794Z,6.32
2022-12-24T18:31:05.079Z,6.28
2022-12-24T18:32:37.413Z,5.53
2022-12-24T18:34:12.550Z,5.95
2022-12-24T18:35:44.191Z,5.97
2022-12-24T18:37:15.800Z,5.65
2022-12-24T18:38:48.016Z,6.28
2022-12-24T18:40:20.576Z,6.93
2022-12-24T18:41:52.344Z,6.55
2022-12-24T18:43:23.969Z,7.15
2022-12-24T18:44:55.611Z,5.10
2022-12-24T18:46:30.095Z,5.97
2022-12-24T18:48:01.801Z,6.18
2022-12-24T18:49:33.368Z,5.55
2022-12-24T18:51:06.270Z,6.25
2022-12-24T18:52:37.857Z,6.68
2022-12-24T18:54:09.487Z,4.43
2022-12-24T18:55:41.168Z,5.20
2022-12-24T18:57:12.748Z,5.18
2022-12-24T18:58:44.749Z,5.88
2022-12-24T19:00:16.571Z,5.75
2022-12-24T19:01:48.641Z,5.25
2022-12-24T19:03:20.445Z,4.57
2022-12-24T19:04:52.130Z,6.72
2022-12-24T19:06:24.669Z,6.40
2022-12-24T19:07:56.876Z,5.30
2022-12-24T19:09:28.487Z,4.55
2022-12-24T19:11:00.129Z,5.50
2022-12-24T19:12:31.793Z,5.88
2022-12-24T19:14:05.058Z,5.53
2022-12-24T19:15:40.496Z,8.10
2022-12-24T19:17:12.077Z,11.52
2022-12-24T19:18:43.719Z,10.73
2022-12-24T19:20:15.296Z,11.63
2022-12-24T19:21:46.972Z,10.75
2022-12-24T19:23:18.617Z,10.85
2022-12-24T19:24:50.737Z,9.40
2022-12-24T19:26:22.454Z,9.90
2022-12-24T19:27:54.057Z,9.98
2022-12-24T19:29:25.709Z,10.60
2022-12-24T19:31:06.607Z,9.77
2022-12-24T19:32:38.224Z,9.05
2022-12-24T19:34:09.877Z,8.45
2022-12-24T19:35:41.570Z,7.57
2022-12-24T19:37:13.422Z,7.53
2022-12-24T19:38:45.672Z,6.95
2022-12-24T19:40:17.372Z,6.40
2022-12-24T19:41:48.991Z,7.95
2022-12-24T19:43:20.546Z,9.40
2022-12-24T19:44:52.204Z,8.88
2022-12-24T19:46:27.554Z,9.15
2022-12-24T19:47:59.279Z,8.55
2022-12-24T19:49:30.951Z,9.63
2022-12-24T19:51:04.464Z,8.32
2022-12-24T19:52:36.031Z,9.23
2022-12-24T19:54:13.339Z,9.15
2022-12-24T19:55:48.482Z,8.32
2022-12-24T19:57:20.050Z,9.93
2022-12-24T19:58:51.860Z,13.52
2022-12-24T20:00:23.555Z,13.65
2022-12-24T20:01:56.192Z,13.55
2022-12-24T20:03:27.941Z,12.75
2022-12-24T20:04:59.601Z,16.65
2022-12-24T20:06:33.898Z,18.20
2022-12-24T20:08:05.490Z,15.60
2022-12-24T20:09:37.243Z,15.93
2022-12-24T20:11:12.083Z,17.80
2022-12-24T20:12:43.731Z,17.13
2022-12-24T20:14:15.309Z,16.30
2022-12-24T20:15:47.021Z,17.30
2022-12-24T20:17:20.019Z,16.60
2022-12-24T20:19:00.884Z,17.40
2022-12-24T20:20:32.505Z,14.00
2022-12-24T20:22:04.201Z,16.48
2022-12-24T20:23:40.129Z,13.93
2022-12-24T20:26:43.305Z,13.48
2022-12-24T20:28:14.946Z,12.98
2022-12-24T20:29:46.713Z,11.60
2022-12-24T20:31:24.596Z,10.40
2022-12-24T20:32:56.938Z,9.68
2022-12-24T20:34:28.575Z,11.48
2022-12-24T20:36:03.660Z,12.48
2022-12-24T20:37:43.673Z,9.50
2022-12-24T20:39:17.440Z,8.48
2022-12-24T20:40:49.056Z,7.72
2022-12-24T20:42:20.816Z,8.18
2022-12-24T20:43:52.620Z,7.82
2022-12-24T20:45:24.342Z,9.38
2022-12-24T20:46:56.008Z,10.43
2022-12-24T20:48:27.720Z,11.00
2022-12-24T20:49:59.545Z,10.20
2022-12-24T20:51:31.453Z,11.50
2022-12-24T20:53:03.249Z,11.50
2022-12-24T20:54:34.965Z,10.23
2022-12-24T20:56:06.939Z,10.60
2022-12-24T20:57:38.611Z,9.73
2022-12-24T20:59:10.185Z,9.68
2022-12-24T21:00:42.075Z,10.27
2022-12-24T21:02:13.830Z,11.15
2022-12-24T21:03:45.616Z,10.13
2022-12-24T21:05:17.495Z,10.25
2022-12-24T21:06:49.176Z,10.25
2022-12-24T21:08:20.787Z,9.48
2022-12-24T21:09:52.338Z,8.00
2022-12-24T21:11:43.112Z,9.00
2022-12-24T21:13:14.703Z,9.45
2022-12-24T21:14:46.327Z,10.13
2022-12-24T21:16:18.056Z,8.60
2022-12-24T21:17:50.142Z,9.27
2022-12-24T21:19:24.394Z,8.38
2022-12-24T21:20:55.970Z,7.70
2022-12-24T21:22:27.612Z,7.57
2022-12-24T21:23:59.298Z,7.70
2022-12-24T21:25:30.931Z,7.60
2022-12-24T21:27:02.523Z,7.32
2022-12-24T21:28:34.135Z,8.13